Condiciones actuales en los principales Aeropuertos de España-Datos Metar

 

LEAL - Alicante
Actualización: 13/12/2018 02:00
Despejado
Despejado
 Viento del OSO
Viento: OSO 17 km/h
Temperatura: 14°C
Rocío: 6°C
Humedad: 59%
Barómetro: 1015 hPa
Resumen: Despejado
Visibilidad: greater than 10 km
2018/12/13 01:00 LEAL 130100Z 25009KT 210V280 CAVOK 14/06 Q1015 NOSIG
LEAB - Albacete
Actualización: 13/12/2018 02:00
Partly Cloudy
Partly Cloudy
 Viento del ONO
Viento: ONO 13 km/h
Temperatura: 8°C
Wind Chill: 6°C
Rocío: 6°C
Humedad: 87%
Barómetro: 1017 hPa
Nubosidad: Partly Cloudy
Visibilidad: 10 km
Cloud details: Partly Cloudy 762 m
2018/12/13 01:00 LEAB 130100Z 29007KT 9999 SCT025 08/06 Q1017 NOSIG
LEAM - Almería
Actualización: 13/12/2018 02:00

 Viento del N
Viento: N 7 km/h
Temperatura: 12°C
Rocío: 8°C
Humedad: 77%
Barómetro: 1015 hPa
Visibilidad: 10 km
2018/12/13 01:00 LEAM 130100Z AUTO 01004KT 9999 ////// 12/08 Q1015
 
LEAS - Asturias/Aviles
Actualización: 13/12/2018 02:00
Despejado
Despejado
 Viento del SSE
Viento: SSE 7 km/h
Temperatura: 10°C
Wind Chill: 9°C
Rocío: 9°C
Humedad: 94%
Barómetro: 1003 hPa
Resumen: Despejado
Visibilidad: greater than 10 km
2018/12/13 01:00 LEAS 130100Z AUTO 16004KT CAVOK 10/09 Q1003
LEBZ - Badajoz/Talavera la Real
Actualización: 12/12/2018 21:00
NO Actualizado
Partly Cloudy
Partly Cloudy
 Viento del SSO
Viento: SSO 13 km/h
Temperatura: 12°C
Rocío: 9°C
Humedad: 82%
Barómetro: 1020 hPa
Nubosidad: Partly Cloudy
Visibilidad: 10 km
Cloud details: Partly Cloudy 1067 m
2018/12/12 20:00 LEBZ 122000Z 20007KT 160V230 9999 SCT035 12/09 Q1020
LEBL - Barcelona
Actualización: 13/12/2018 02:00
Partly Cloudy
Partly Cloudy
 Viento del NNO
Viento: NNO 9 km/h
Temperatura: 11°C
Rocío: 7°C
Humedad: 77%
Barómetro: 1013 hPa
Nubosidad: Partly Cloudy
Visibilidad: 10 km
Cloud details: Few Clouds 823 m
Partly Cloudy 1372 m
2018/12/13 01:00 LEBL 130100Z 34005KT 9999 FEW027 SCT045 11/07 Q1013 NOSIG
 
LEBB - Bilbao
Actualización: 13/12/2018 02:00
Despejado
Despejado
 Viento del SSO
Viento: SSO 22 km/h
Temperatura: 15°C
Rocío: 7°C
Humedad: 59%
Barómetro: 1008 hPa
Resumen: Despejado
Visibilidad: greater than 10 km
2018/12/13 01:00 LEBB 130100Z AUTO 21012KT 160V270 CAVOK 15/07 Q1008
LEBG - Burgos/Villafría
Actualización: 13/12/2018 02:00
Cubierto
Cubierto
 Viento del S
Viento: S 31 km/h
Temperatura: 6°C
Wind Chill: 1°C
Rocío: 6°C
Humedad: 100%
Barómetro: 1011 hPa
Nubosidad: Cubierto
Visibilidad: 7 km
Cloud details: Cubierto 244 m
2018/12/13 01:00 LEBG 130100Z AUTO 19017KT 7000 OVC008/// 06/06 Q1011
LEBA - Córdoba
Actualización: 13/12/2018 02:00
Partly Cloudy
Partly Cloudy
 Viento del O
Viento: O 4 km/h
Temperatura: 12°C
Rocío: 11°C
Humedad: 94%
Barómetro: 1019 hPa
Nubosidad: Partly Cloudy
Visibilidad: 7 km
2018/12/13 01:00 LEBA 130100Z AUTO 26002KT 7000 NSC 12/11 Q1019
 
LEGE - Gerona
Actualización: 13/12/2018 02:00
Mostly Cloudy
Mostly Cloudy
 Viento del calm
Viento: Calma
Temperatura: 9°C
Rocío: 9°C
Humedad: 100%
Barómetro: 1013 hPa
Nubosidad: Mostly Cloudy
Visibilidad: 10 km
Cloud details: Few Clouds 549 m
Mostly Cloudy 640 m
2018/12/13 01:00 LEGE 130100Z 00000KT 9999 FEW018 BKN021 09/09 Q1013
LEGR - Granada
Actualización: 13/12/2018 02:00
Cubierto
Cubierto
 Viento del calm
Viento: Calma
Temperatura: 8°C
Rocío: 7°C
Humedad: 93%
Barómetro: 1020 hPa
Nubosidad: Cubierto
Visibilidad: 9 km
Cloud details: Cubierto 1097 m
2018/12/13 01:00 LEGR 130100Z AUTO 00000KT 9000 OVC036/// 08/07 Q1020
GCHI - Hierro
Actualización: 13/12/2018 02:00
Partly Cloudy
Partly Cloudy
 Viento del NNE
Viento: NNE 24 km/h, Racha: 43 km/h
Temperatura: 20°C
Rocío: 14°C
Humedad: 69%
Barómetro: 1026 hPa
Nubosidad: Partly Cloudy
Visibilidad: 10 km
Cloud details: Few Clouds 1006 m
Partly Cloudy 1189 m
2018/12/13 01:00 GCHI 130100Z AUTO 02013G23KT 330V040 9999 FEW033/// SCT039/// 20/14 Q1026
 
LEIB - Ibiza
Actualización: 13/12/2018 02:00
Despejado
Despejado
 Viento del ONO
Viento: ONO 7 km/h
Temperatura: 13°C
Rocío: 10°C
Humedad: 82%
Barómetro: 1014 hPa
Resumen: Despejado
Visibilidad: greater than 10 km
2018/12/13 01:00 LEIB 130100Z AUTO 29004KT CAVOK 13/10 Q1014
LEJR - Jerez de la Frontera
Actualización: 13/12/2018 02:30
Cubierto
Cubierto
 Viento del varies
Viento: varies 4 km/h
Temperatura: 13°C
Rocío: 12°C
Humedad: 94%
Barómetro: 1020 hPa
Nubosidad: Cubierto
Visibilidad: 10 km
Cloud details: Cubierto 1372 m
2018/12/13 01:30 LEJR 130130Z AUTO VRB02KT 9999 OVC045 13/12 Q1020
LECO - A Coruña
Actualización: 13/12/2018 02:00
Lluvia débil, Parcialmente nublado
Lluvia débil, Parcialmente nublado
 Viento del ONO
Viento: ONO 11 km/h, Racha: 30 km/h
Temperatura: 10°C
Wind Chill: 8°C
Rocío: 9°C
Humedad: 94%
Barómetro: 1005 hPa
Resumen: Light Rain
Nubosidad: Partly Cloudy
Visibilidad: 10 km
Cloud details: Few Clouds 427 m
Partly Cloudy 1189 m
2018/12/13 01:00 LECO 130100Z AUTO 29006G16KT 230V330 9999 -RA FEW014/// SCT039/// 10/09 Q1005
 
GCLA - La Palma
Actualización: 13/12/2018 02:00
Mostly Cloudy
Mostly Cloudy
 Viento del NNO
Viento: NNO 13 km/h
Temperatura: 19°C
Rocío: 12°C
Humedad: 64%
Barómetro: 1027 hPa
Nubosidad: Mostly Cloudy
Visibilidad: 10 km
Cloud details: Mostly Cloudy 1128 m
2018/12/13 01:00 GCLA 130100Z AUTO 33007KT 9999 BKN037/// 19/12 Q1027
GCRR - Lanzarote
Actualización: 13/12/2018 02:00
Mostly Cloudy
Mostly Cloudy
 Viento del NNE
Viento: NNE 15 km/h
Temperatura: 19°C
Rocío: 12°C
Humedad: 64%
Barómetro: 1025 hPa
Nubosidad: Mostly Cloudy
Visibilidad: 10 km
Cloud details: Mostly Cloudy 1006 m
2018/12/13 01:00 GCRR 130100Z 02008KT 9999 BKN033 19/12 Q1025
GCLP - Las Palmas
Actualización: 13/12/2018 02:00
Mostly Cloudy
Mostly Cloudy
 Viento del N
Viento: N 24 km/h
Temperatura: 20°C
Rocío: 14°C
Humedad: 69%
Barómetro: 1025 hPa
Nubosidad: Mostly Cloudy
Visibilidad: 10 km
Cloud details: Few Clouds 914 m
Mostly Cloudy 1219 m
2018/12/13 01:00 GCLP 130100Z 01013KT 9999 FEW030 BKN040 20/14 Q1025 NOSIG
 
LELN - León
Actualización: 13/12/2018 02:00
Lluvia débil, Mist, Patches of, Niebla, Cubierto
Lluvia débil, Mist, Patches of, Niebla, Cubierto
 Viento del SSE
Viento: SSE 11 km/h
Temperatura: 5°C
Wind Chill: 2°C
Rocío: 5°C
Humedad: 100%
Barómetro: 1010 hPa
Resumen: Lluvia débil, Mist, Patches of, Niebla
Nubosidad: Cubierto
Visibilidad: 1 km
Cloud details: Cubierto 61 m
2018/12/13 01:00 LELN 130100Z AUTO 15006KT 1100 0900NE R23/0900U R05/1800D -RA BR BCFG VV002 05/05 Q1010
LELO - Logroño
Actualización: 13/12/2018 02:00
Partly Cloudy
Partly Cloudy
 Viento del N
Viento: N 6 km/h
Temperatura: 6°C
Rocío: 5°C
Humedad: 93%
Barómetro: 1011 hPa
Nubosidad: Partly Cloudy
Visibilidad: 10 km
Cloud details: Partly Cloudy 2042 m
2018/12/13 01:00 LELO 130100Z AUTO 01003KT 330V080 9999 SCT067 06/05 Q1011
LECV - Madrid/Colmenar
Actualización: 12/12/2018 19:00
NO Actualizado
Mist, Cubierto
Mist, Cubierto
 Viento del varies
Viento: varies 2 km/h
Temperatura: 5°C
Rocío: 5°C
Humedad: 100%
Barómetro: 1019 hPa
Resumen: Mist
Nubosidad: Cubierto
Visibilidad: 2 km
Cloud details: Cubierto 122 m
2018/12/12 18:00 LECV 121800Z VRB01KT 2000 BR OVC004 05/05 Q1019
 
LEMD - Madrid/Barajas
Actualización: 13/12/2018 02:00
Mostly Cloudy
Mostly Cloudy
 Viento del S
Viento: S 9 km/h
Temperatura: 8°C
Wind Chill: 6°C
Rocío: 7°C
Humedad: 93%
Barómetro: 1015 hPa
Nubosidad: Mostly Cloudy
Visibilidad: 7 km
Cloud details: Few Clouds 274 m
Mostly Cloudy 366 m
2018/12/13 01:00 LEMD 130100Z 19005KT 150V220 7000 FEW009 BKN012 08/07 Q1015 NOSIG
LEVS - Madrid/Cuatro Vientos
Actualización: 12/12/2018 20:00
NO Actualizado
Cubierto
Cubierto
 Viento del SSO
Viento: SSO 11 km/h
Temperatura: 8°C
Wind Chill: 6°C
Rocío: 7°C
Humedad: 93%
Barómetro: 1019 hPa
Nubosidad: Cubierto
Visibilidad: 9 km
Cloud details: Partly Cloudy 274 m
Cubierto 671 m
2018/12/12 19:00 LEVS 121900Z 21006KT 180V250 9000 SCT009 OVC022 08/07 Q1019
LEGT - Madrid/Getafe
Actualización: 12/12/2018 21:00
NO Actualizado
Mostly Cloudy
Mostly Cloudy
 Viento del OSO
Viento: OSO 15 km/h
Temperatura: 9°C
Wind Chill: 7°C
Rocío: 7°C
Humedad: 87%
Barómetro: 1019 hPa
Nubosidad: Mostly Cloudy
Visibilidad: 10 km
Cloud details: Mostly Cloudy 671 m
2018/12/12 20:00 LEGT 122000Z 24008KT 9999 BKN022 09/07 Q1019
 
LETO - Madrid/Torrejón
Actualización: 13/12/2018 02:00
Mostly Cloudy
Mostly Cloudy
 Viento del SSO
Viento: SSO 13 km/h
Temperatura: 8°C
Wind Chill: 6°C
Rocío: 7°C
Humedad: 93%
Barómetro: 1015 hPa
Nubosidad: Mostly Cloudy
Visibilidad: 10 km
Cloud details: Mostly Cloudy 305 m
Mostly Cloudy 366 m
2018/12/13 01:00 LETO 130100Z 20007KT 170V240 9999 BKN010 BKN012 08/07 Q1015 NOSIG
LEMG - Málaga
Actualización: 13/12/2018 02:00
Few Clouds
Few Clouds
 Viento del O
Viento: O 13 km/h
Temperatura: 15°C
Rocío: 9°C
Humedad: 68%
Barómetro: 1019 hPa
Nubosidad: Few Clouds
Visibilidad: 10 km
Cloud details: Few Clouds 610 m
2018/12/13 01:00 LEMG 130100Z 28007KT 9999 FEW020 15/09 Q1019 NOSIG
GEML - Melilla
Actualización: 13/12/2018 02:00
Despejado
Despejado
 Viento del OSO
Viento: OSO 7 km/h
Temperatura: 15°C
Rocío: 12°C
Humedad: 82%
Barómetro: 1020 hPa
Nubosidad: Despejado
Visibilidad: 10 km
2018/12/13 01:00 GEML 130100Z AUTO 24004KT 200V280 9999 NCD 15/12 Q1020
 
LEMH - Mahón
Actualización: 13/12/2018 02:00
Despejado
Despejado
 Viento del O
Viento: O 9 km/h
Temperatura: 13°C
Rocío: 10°C
Humedad: 82%
Barómetro: 1014 hPa
Resumen: Despejado
Visibilidad: greater than 10 km
2018/12/13 01:00 LEMH 130100Z AUTO 27005KT CAVOK 13/10 Q1014
LEMO - Morón de La Frontera
Actualización: 13/12/2018 02:00
Mist, Parcialmente nublado
Mist, Parcialmente nublado
 Viento del SSO
Viento: SSO 7 km/h
Temperatura: 12°C
Rocío: 11°C
Humedad: 94%
Barómetro: 1020 hPa
Resumen: Mist
Nubosidad: Partly Cloudy
Visibilidad: 5 km
2018/12/13 01:00 LEMO 130100Z 20004KT 5000 BR NSC 12/11 Q1020 NOSIG
LERI - Murcia/Alcantarilla
Actualización: 12/12/2018 19:00
NO Actualizado
Despejado
Despejado
 Viento del SO
Viento: SO 7 km/h
Temperatura: 12°C
Rocío: 9°C
Humedad: 82%
Barómetro: 1018 hPa
Resumen: Despejado
Visibilidad: greater than 10 km
2018/12/12 18:00 LERI 121800Z 22004KT CAVOK 12/09 Q1018 NOSIG
 
LELC - Murcia/San Javier
Actualización: 13/12/2018 02:00
Despejado
Despejado
 Viento del O
Viento: O 11 km/h
Temperatura: 11°C
Rocío: 8°C
Humedad: 82%
Barómetro: 1015 hPa
Resumen: Despejado
Visibilidad: greater than 10 km
2018/12/13 01:00 LELC 130100Z AUTO 26006KT CAVOK 11/08 Q1015
LEPA - Palma de Mallorca
Actualización: 13/12/2018 02:00
Few Clouds
Few Clouds
 Viento del varies
Viento: varies 2 km/h
Temperatura: 9°C
Rocío: 8°C
Humedad: 94%
Barómetro: 1013 hPa
Nubosidad: Few Clouds
Visibilidad: 10 km
Cloud details: Few Clouds 549 m
2018/12/13 01:00 LEPA 130100Z VRB01KT 9999 FEW018 09/08 Q1013 NOSIG
LEPP - Pamplona
Actualización: 13/12/2018 02:00
Despejado
Despejado
 Viento del SSE
Viento: SSE 13 km/h
Temperatura: 8°C
Wind Chill: 6°C
Rocío: 5°C
Humedad: 82%
Barómetro: 1011 hPa
Resumen: Despejado
Visibilidad: greater than 10 km
2018/12/13 01:00 LEPP 130100Z AUTO 15007KT 120V180 CAVOK 08/05 Q1011
 
LERS - Reus
Actualización: 13/12/2018 02:00
Despejado
Despejado
 Viento del varies
Viento: varies 2 km/h
Temperatura: 9°C
Rocío: 7°C
Humedad: 87%
Barómetro: 1013 hPa
Resumen: Despejado
Visibilidad: greater than 10 km
2018/12/13 01:00 LERS 130100Z AUTO VRB01KT CAVOK 09/07 Q1013
LERT - Rota
Actualización: 13/12/2018 02:00
Mostly Cloudy
Mostly Cloudy
 Viento del OSO
Viento: OSO 15 km/h
Temperatura: 16°C
Rocío: 12°C
Humedad: 77%
Barómetro: 1020 hPa
Nubosidad: Mostly Cloudy
Visibilidad: 10 km
Cloud details: Mostly Cloudy 1219 m
2018/12/13 01:00 LERT 130100Z 25008KT 9999 BKN040 16/12 Q1020 TEMPO 4000 RA
LELL - Sabadell
Actualización: 13/12/2018 02:00
Partly Cloudy
Partly Cloudy
 Viento del calm
Viento: Calma
Temperatura: 11°C
Rocío: 9°C
Humedad: 88%
Barómetro: 1013 hPa
Nubosidad: Partly Cloudy
Visibilidad: 10 km
Cloud details: Partly Cloudy 610 m
Partly Cloudy 792 m
2018/12/13 01:00 LELL 130100Z AUTO 00000KT 9999 SCT020/// SCT026/// 11/09 Q1013
 
LESA - Salamanca
Actualización: 13/12/2018 02:00
Few Clouds
Few Clouds
 Viento del SSO
Viento: SSO 19 km/h
Temperatura: 7°C
Wind Chill: 4°C
Rocío: 6°C
Humedad: 93%
Barómetro: 1012 hPa
Nubosidad: Few Clouds
Visibilidad: 10 km
Cloud details: Few Clouds 366 m
2018/12/13 01:00 LESA 130100Z AUTO 21010KT 9999 FEW012/// 07/06 Q1012
LESO - San Sebastián
Actualización: 13/12/2018 02:00
Despejado
Despejado
 Viento del calm
Viento: Calma
Temperatura: 9°C
Rocío: 8°C
Humedad: 94%
Barómetro: 1009 hPa
Nubosidad: Despejado
Visibilidad: 10 km
2018/12/13 01:00 LESO 130100Z AUTO 00000KT 9999 NCD 09/08 Q1009
LEXJ - Santander
Actualización: 13/12/2018 02:00
Mostly Cloudy
Mostly Cloudy
 Viento del SSO
Viento: SSO 26 km/h, Racha: 52 km/h
Temperatura: 15°C
Rocío: 7°C
Humedad: 59%
Barómetro: 1006 hPa
Nubosidad: Mostly Cloudy
Visibilidad: 10 km
Cloud details: Mostly Cloudy 2347 m
2018/12/13 01:00 LEXJ 130100Z AUTO 20014G28KT 160V250 9999 BKN077 15/07 Q1006
 
LEPA - Palma de Mallorca
Actualización: 13/12/2018 02:00
Few Clouds
Few Clouds
 Viento del varies
Viento: varies 2 km/h
Temperatura: 9°C
Rocío: 8°C
Humedad: 94%
Barómetro: 1013 hPa
Nubosidad: Few Clouds
Visibilidad: 10 km
Cloud details: Few Clouds 549 m
2018/12/13 01:00 LEPA 130100Z VRB01KT 9999 FEW018 09/08 Q1013 NOSIG
LEPP - Pamplona
Actualización: 13/12/2018 02:00
Despejado
Despejado
 Viento del SSE
Viento: SSE 13 km/h
Temperatura: 8°C
Wind Chill: 6°C
Rocío: 5°C
Humedad: 82%
Barómetro: 1011 hPa
Resumen: Despejado
Visibilidad: greater than 10 km
2018/12/13 01:00 LEPP 130100Z AUTO 15007KT 120V180 CAVOK 08/05 Q1011
LEST - Santiago de Compostela
Actualización: 13/12/2018 02:00
Lluvia débil, Muy nuboso
Lluvia débil, Muy nuboso
 Viento del ONO
Viento: ONO 22 km/h
Temperatura: 9°C
Wind Chill: 6°C
Rocío: 8°C
Humedad: 94%
Barómetro: 1006 hPa
Resumen: Light Rain
Nubosidad: Mostly Cloudy
Visibilidad: 8 km
Cloud details: Partly Cloudy 274 m
Partly Cloudy 457 m
Mostly Cloudy 1219 m
2018/12/13 01:00 LEST 130100Z 29012KT 260V330 8000 -RA SCT009 SCT015 BKN040 09/08 Q1006 TEMPO 3000 RA
 
LEZL - Sevilla
Actualización: 13/12/2018 02:00
Despejado
Despejado
 Viento del S
Viento: S 6 km/h
Temperatura: 13°C
Rocío: 11°C
Humedad: 88%
Barómetro: 1019 hPa
Resumen: Despejado
Visibilidad: greater than 10 km
2018/12/13 01:00 LEZL 130100Z AUTO 19003KT 160V250 CAVOK 13/11 Q1019
GCXO - Tenerife
Actualización: 13/12/2018 02:00
Cubierto
Cubierto
 Viento del ONO
Viento: ONO 26 km/h
Temperatura: 13°C
Rocío: 11°C
Humedad: 88%
Barómetro: 1027 hPa
Nubosidad: Cubierto
Visibilidad: 10 km
Cloud details: Mostly Cloudy 427 m
Cubierto 579 m
2018/12/13 01:00 GCXO 130100Z AUTO 29014KT 9999 BKN014/// OVC019/// 13/11 Q1027
GCTS - Tenerife-Sur
Actualización: 13/12/2018 02:00
Few Clouds
Few Clouds
 Viento del NE
Viento: NE 20 km/h
Temperatura: 18°C
Rocío: 11°C
Humedad: 64%
Barómetro: 1025 hPa
Nubosidad: Few Clouds
Visibilidad: 10 km
Cloud details: Few Clouds 914 m
2018/12/13 01:00 GCTS 130100Z 04011KT 9999 FEW030 18/11 Q1025 NOSIG
 
LEVC - Valencia
Actualización: 13/12/2018 02:00
Few Clouds
Few Clouds
 Viento del O
Viento: O 20 km/h
Temperatura: 15°C
Rocío: 6°C
Humedad: 55%
Barómetro: 1014 hPa
Nubosidad: Few Clouds
Visibilidad: 10 km
Cloud details: Few Clouds 610 m
2018/12/13 01:00 LEVC 130100Z 28011KT 9999 FEW020 15/06 Q1014 NOSIG
LEVD - Valladolid
Actualización: 12/12/2018 21:30
NO Actualizado
Mostly Cloudy
Mostly Cloudy
 Viento del SSO
Viento: SSO 13 km/h
Temperatura: 6°C
Wind Chill: 3°C
Rocío: 5°C
Humedad: 93%
Barómetro: 1016 hPa
Nubosidad: Mostly Cloudy
Visibilidad: 10 km
Cloud details: Mostly Cloudy 518 m
2018/12/12 20:30 LEVD 122030Z 20007KT 170V230 9999 BKN017 06/05 Q1016
LEVX - Vigo
Actualización: 13/12/2018 02:00
LLuvia, Muy nuboso
LLuvia, Muy nuboso
 Viento del O
Viento: O 22 km/h, Racha: 43 km/h
Temperatura: 10°C
Wind Chill: 7°C
Rocío: 10°C
Humedad: 100%
Barómetro: 1008 hPa
Resumen: LLuvia
Nubosidad: Mostly Cloudy
Visibilidad: 6 km
Cloud details: Partly Cloudy 152 m
Mostly Cloudy 305 m
2018/12/13 01:00 LEVX 130100Z 27012G23KT 210V330 6000 RA SCT005 BKN010 10/10 Q1008 TEMPO 3000 SHRA SCT020TCU
 
LEVT - Vitoria
Actualización: 13/12/2018 02:00
Mostly Cloudy
Mostly Cloudy
 Viento del SO
Viento: SO 19 km/h
Temperatura: 9°C
Wind Chill: 6°C
Rocío: 6°C
Humedad: 82%
Barómetro: 1010 hPa
Nubosidad: Mostly Cloudy
Visibilidad: 10 km
Cloud details: Few Clouds 610 m
Mostly Cloudy 1067 m
2018/12/13 01:00 LEVT 130100Z 22010KT 190V250 9999 FEW020 BKN035 09/06 Q1010
LEZG - Zaragoza
Actualización: 13/12/2018 02:00
Few Clouds
Few Clouds
 Viento del OSO
Viento: OSO 19 km/h
Temperatura: 12°C
Rocío: 6°C
Humedad: 67%
Barómetro: 1013 hPa
Nubosidad: Few Clouds
Visibilidad: 10 km
Cloud details: Few Clouds 2591 m
2018/12/13 01:00 LEZG 130100Z 24010KT 200V280 9999 FEW085 12/06 Q1013

La estación de MeteoMurcia.com, publica sus datos en los siguientes proyectos:

Meteoclimatic www.awekas.at

W3Counter
Web Analytics